Strona główna
METAR-TAF:

METAR-TAF

Lotnisko :

Grosse Ile Municipal Airport

Detroit / Grosse Ile, Michigan, Stany Zjednoczone

Szerokość geograficzna: 42-05-55N, Długość geograficzna: 083-09-40W, wysokość: 180 m

Aktualna obserwacja pogody

Raport powstał 26 minut temu, godzina 03:55 UTC
Wiatr 12 kt od południowo-południowy zachód
Temperatura 25°C
Wilgotność 89%
Ciśnienie 1010 hPa
Widzialność: 16.1 km
bezchmurnie

METAR: KONZ 210355Z AUTO 20012KT 10SM CLR 25/23 A2983 RMK AO2 T02470230

czas: 00:21 (04:21 UTC)


TAF: brakujący

Obserwacja i prognoza pogody dla ponad 4000 lotnisk (raport METAR i TAF).

Dostępne stacje oznaczono żółtymi i czerwonymi punktami na mapie.

Najedź kursorem aby zobaczyć nazwę stacji.

Kliknij aby zobaczyć obserwacje i prognozy pogody.

Aby zmienić mapę: kliknij na zielony przycisk z czarnym krzyżykiem, aby powiększyć; na zielony przycisk z myślnikiem, aby pomniejszyć; na zielone strzałki, aby przejść do map sąsiednich.


METAR-TAF: